Millersville, Maryland
Current Conditions -  °F | °C
As of 11:06 AM on Thursday 29 Jan 2015 (Local Time) from KFME Reporting Station
Clear Clear  
Wind Chill: 26°   Ceiling: Unl
Heat Index: 32°   Visibility: 10mi
Dew Point: 14°   Wind: 7mph
Humidity: 47%   Direction: 150°SSE
Pressure: 30.3"   Gusts: NA
Location:  39.06°N, 76.65°W
Report Text: KFME 291606Z AUTO 15006KT 10SM CLR 00/M10 A3030 RMK AO1
Loading
Personal Weather Stations






























Interactive Weather Map New forecast layout! Learn more

10-Day Weather Forecast

Advertisements
Track Severe Weather on mobile